sensor_id;sensor_type;location;lat;lon;timestamp;temperature;humidity
1536;DHT22;761;50.074;8.228;2022-09-03T00:01:37;15.80;1.00
1536;DHT22;761;50.074;8.228;2022-09-03T00:04:11;15.70;1.00
1536;DHT22;761;50.074;8.228;2022-09-03T00:06:57;15.80;1.00
1536;DHT22;761;50.074;8.228;2022-09-03T00:09:31;15.70;1.00
1536;DHT22;761;50.074;8.228;2022-09-03T00:12:07;15.80;1.00
1536;DHT22;761;50.074;8.228;2022-09-03T00:14:40;16.00;1.00
1536;DHT22;761;50.074;8.228;2022-09-03T00:17:11;16.20;1.00
1536;DHT22;761;50.074;8.228;2022-09-03T00:19:45;16.40;1.00
1536;DHT22;761;50.074;8.228;2022-09-03T00:22:16;16.60;1.00
1536;DHT22;761;50.074;8.228;2022-09-03T00:24:51;16.60;1.00
1536;DHT22;761;50.074;8.228;2022-09-03T00:27:22;16.60;1.00
1536;DHT22;761;50.074;8.228;2022-09-03T00:29:59;16.50;1.00
1536;DHT22;761;50.074;8.228;2022-09-03T00:32:39;16.00;1.00
1536;DHT22;761;50.074;8.228;2022-09-03T00:35:13;16.00;1.00
1536;DHT22;761;50.074;8.228;2022-09-03T00:37:44;16.00;1.00
1536;DHT22;761;50.074;8.228;2022-09-03T00:40:22;16.40;1.00
1536;DHT22;761;50.074;8.228;2022-09-03T00:43:01;16.10;1.00
1536;DHT22;761;50.074;8.228;2022-09-03T00:45:42;15.80;1.00
1536;DHT22;761;50.074;8.228;2022-09-03T00:48:18;15.70;1.00
1536;DHT22;761;50.074;8.228;2022-09-03T00:51:13;15.80;1.00
1536;DHT22;761;50.074;8.228;2022-09-03T00:53:52;15.50;1.00
1536;DHT22;761;50.074;8.228;2022-09-03T00:56:30;15.50;1.00
1536;DHT22;761;50.074;8.228;2022-09-03T00:59:09;15.40;1.00
1536;DHT22;761;50.074;8.228;2022-09-03T01:01:47;15.40;1.00
1536;DHT22;761;50.074;8.228;2022-09-03T01:04:36;15.10;1.00
1536;DHT22;761;50.074;8.228;2022-09-03T01:07:11;15.10;1.00
1536;DHT22;761;50.074;8.228;2022-09-03T01:09:52;15.20;1.00
1536;DHT22;761;50.074;8.228;2022-09-03T01:12:31;15.30;1.00
1536;DHT22;761;50.074;8.228;2022-09-03T01:15:08;15.20;1.00
1536;DHT22;761;50.074;8.228;2022-09-03T01:17:48;15.10;1.00
1536;DHT22;761;50.074;8.228;2022-09-03T01:20:43;15.30;1.00
1536;DHT22;761;50.074;8.228;2022-09-03T01:23:40;15.10;1.00
1536;DHT22;761;50.074;8.228;2022-09-03T01:29:11;14.80;1.00
1536;DHT22;761;50.074;8.228;2022-09-03T01:31:47;14.90;1.00
1536;DHT22;761;50.074;8.228;2022-09-03T01:34:30;15.00;1.00
1536;DHT22;761;50.074;8.228;2022-09-03T01:37:13;15.00;1.00
1536;DHT22;761;50.074;8.228;2022-09-03T01:39:53;15.00;1.00
1536;DHT22;761;50.074;8.228;2022-09-03T01:42:29;14.80;1.00
1536;DHT22;761;50.074;8.228;2022-09-03T01:45:17;14.70;1.00
1536;DHT22;761;50.074;8.228;2022-09-03T01:48:00;14.90;1.00
1536;DHT22;761;50.074;8.228;2022-09-03T01:50:40;14.90;1.00
1536;DHT22;761;50.074;8.228;2022-09-03T01:53:21;15.10;1.00
1536;DHT22;761;50.074;8.228;2022-09-03T01:56:04;15.00;1.00
1536;DHT22;761;50.074;8.228;2022-09-03T01:58:39;15.00;1.00
1536;DHT22;761;50.074;8.228;2022-09-03T02:01:16;14.90;1.00
1536;DHT22;761;50.074;8.228;2022-09-03T02:03:48;14.70;1.00
1536;DHT22;761;50.074;8.228;2022-09-03T02:06:18;14.60;1.00
1536;DHT22;761;50.074;8.228;2022-09-03T02:08:46;14.60;1.00
1536;DHT22;761;50.074;8.228;2022-09-03T02:11:15;14.70;1.00
1536;DHT22;761;50.074;8.228;2022-09-03T02:13:45;14.90;1.00
1536;DHT22;761;50.074;8.228;2022-09-03T02:16:18;14.90;1.00
1536;DHT22;761;50.074;8.228;2022-09-03T02:18:50;14.70;1.00
1536;DHT22;761;50.074;8.228;2022-09-03T02:21:21;14.80;1.00
1536;DHT22;761;50.074;8.228;2022-09-03T02:23:51;14.70;1.00
1536;DHT22;761;50.074;8.228;2022-09-03T02:26:21;14.80;1.00
1536;DHT22;761;50.074;8.228;2022-09-03T02:28:52;15.10;1.00
1536;DHT22;761;50.074;8.228;2022-09-03T02:31:22;15.20;1.00
1536;DHT22;761;50.074;8.228;2022-09-03T02:33:51;15.20;1.00
1536;DHT22;761;50.074;8.228;2022-09-03T02:36:24;15.20;1.00
1536;DHT22;761;50.074;8.228;2022-09-03T02:38:53;15.20;1.00
1536;DHT22;761;50.074;8.228;2022-09-03T02:41:21;15.30;1.00
1536;DHT22;761;50.074;8.228;2022-09-03T02:43:57;15.40;1.00
1536;DHT22;761;50.074;8.228;2022-09-03T02:46:32;15.40;1.00
1536;DHT22;761;50.074;8.228;2022-09-03T02:49:02;15.30;1.00
1536;DHT22;761;50.074;8.228;2022-09-03T02:51:34;15.40;1.00
1536;DHT22;761;50.074;8.228;2022-09-03T02:54:03;15.40;1.00
1536;DHT22;761;50.074;8.228;2022-09-03T02:56:31;15.30;1.00
1536;DHT22;761;50.074;8.228;2022-09-03T02:59:01;15.30;1.00
1536;DHT22;761;50.074;8.228;2022-09-03T03:01:31;15.40;1.00
1536;DHT22;761;50.074;8.228;2022-09-03T03:03:59;15.50;1.00
1536;DHT22;761;50.074;8.228;2022-09-03T03:06:27;15.50;1.00
1536;DHT22;761;50.074;8.228;2022-09-03T03:08:56;15.40;1.00
1536;DHT22;761;50.074;8.228;2022-09-03T03:11:24;15.30;1.00
1536;DHT22;761;50.074;8.228;2022-09-03T03:13:55;15.40;1.00
1536;DHT22;761;50.074;8.228;2022-09-03T03:16:24;15.40;1.00
1536;DHT22;761;50.074;8.228;2022-09-03T03:18:56;15.50;1.00
1536;DHT22;761;50.074;8.228;2022-09-03T03:21:26;15.60;1.00
1536;DHT22;761;50.074;8.228;2022-09-03T03:23:54;15.80;1.00
1536;DHT22;761;50.074;8.228;2022-09-03T03:26:23;15.70;1.00
1536;DHT22;761;50.074;8.228;2022-09-03T03:28:56;15.70;1.00
1536;DHT22;761;50.074;8.228;2022-09-03T03:31:25;15.50;1.00
1536;DHT22;761;50.074;8.228;2022-09-03T03:33:56;15.50;1.00
1536;DHT22;761;50.074;8.228;2022-09-03T03:36:26;15.70;1.00
1536;DHT22;761;50.074;8.228;2022-09-03T03:38:56;15.90;1.00
1536;DHT22;761;50.074;8.228;2022-09-03T03:41:27;15.90;1.00
1536;DHT22;761;50.074;8.228;2022-09-03T03:43:58;15.90;1.00
1536;DHT22;761;50.074;8.228;2022-09-03T03:46:29;15.90;1.00
1536;DHT22;761;50.074;8.228;2022-09-03T03:48:59;15.90;1.00
1536;DHT22;761;50.074;8.228;2022-09-03T03:51:28;15.90;1.00
1536;DHT22;761;50.074;8.228;2022-09-03T03:53:58;16.00;1.00
1536;DHT22;761;50.074;8.228;2022-09-03T03:56:31;16.00;1.00
1536;DHT22;761;50.074;8.228;2022-09-03T03:59:00;16.00;1.00
1536;DHT22;761;50.074;8.228;2022-09-03T04:01:29;16.30;1.00
1536;DHT22;761;50.074;8.228;2022-09-03T04:04:01;16.40;1.00
1536;DHT22;761;50.074;8.228;2022-09-03T04:06:31;16.40;1.00
1536;DHT22;761;50.074;8.228;2022-09-03T04:08:59;16.50;1.00
1536;DHT22;761;50.074;8.228;2022-09-03T04:11:28;16.70;1.00
1536;DHT22;761;50.074;8.228;2022-09-03T04:13:56;17.00;1.00
1536;DHT22;761;50.074;8.228;2022-09-03T04:16:25;17.10;1.00
1536;DHT22;761;50.074;8.228;2022-09-03T04:18:55;17.00;1.00
1536;DHT22;761;50.074;8.228;2022-09-03T04:21:29;16.80;1.00
1536;DHT22;761;50.074;8.228;2022-09-03T04:23:57;16.50;1.00
1536;DHT22;761;50.074;8.228;2022-09-03T04:26:27;16.10;1.00
1536;DHT22;761;50.074;8.228;2022-09-03T04:28:57;16.10;1.00
1536;DHT22;761;50.074;8.228;2022-09-03T04:31:27;16.40;1.00
1536;DHT22;761;50.074;8.228;2022-09-03T04:33:56;16.50;1.00
1536;DHT22;761;50.074;8.228;2022-09-03T04:36:24;16.60;1.00
1536;DHT22;761;50.074;8.228;2022-09-03T04:38:57;16.70;1.00
1536;DHT22;761;50.074;8.228;2022-09-03T04:41:27;16.90;1.00
1536;DHT22;761;50.074;8.228;2022-09-03T04:43:57;16.80;1.00
1536;DHT22;761;50.074;8.228;2022-09-03T04:46:28;16.90;1.00
1536;DHT22;761;50.074;8.228;2022-09-03T04:48:59;17.00;1.00
1536;DHT22;761;50.074;8.228;2022-09-03T04:51:28;17.20;1.00
1536;DHT22;761;50.074;8.228;2022-09-03T04:54:00;17.10;1.00
1536;DHT22;761;50.074;8.228;2022-09-03T04:56:31;17.20;1.00
1536;DHT22;761;50.074;8.228;2022-09-03T04:59:01;17.10;1.00
1536;DHT22;761;50.074;8.228;2022-09-03T05:01:31;17.10;1.00
1536;DHT22;761;50.074;8.228;2022-09-03T05:04:01;17.20;1.00
1536;DHT22;761;50.074;8.228;2022-09-03T05:06:30;17.30;1.00
1536;DHT22;761;50.074;8.228;2022-09-03T05:09:00;17.40;1.00
1536;DHT22;761;50.074;8.228;2022-09-03T05:11:28;17.30;1.00
1536;DHT22;761;50.074;8.228;2022-09-03T05:13:58;17.30;1.00
1536;DHT22;761;50.074;8.228;2022-09-03T05:16:27;17.20;1.00
1536;DHT22;761;50.074;8.228;2022-09-03T05:18:59;17.30;1.00
1536;DHT22;761;50.074;8.228;2022-09-03T05:21:29;17.20;1.00
1536;DHT22;761;50.074;8.228;2022-09-03T05:24:00;17.20;1.00
1536;DHT22;761;50.074;8.228;2022-09-03T05:26:32;17.30;1.00
1536;DHT22;761;50.074;8.228;2022-09-03T05:29:06;17.40;1.00
1536;DHT22;761;50.074;8.228;2022-09-03T05:31:38;17.60;1.00
1536;DHT22;761;50.074;8.228;2022-09-03T05:34:07;17.70;1.00
1536;DHT22;761;50.074;8.228;2022-09-03T05:36:42;17.60;1.00
1536;DHT22;761;50.074;8.228;2022-09-03T05:39:13;17.60;1.00
1536;DHT22;761;50.074;8.228;2022-09-03T05:41:41;17.50;1.00
1536;DHT22;761;50.074;8.228;2022-09-03T05:44:10;17.50;1.00
1536;DHT22;761;50.074;8.228;2022-09-03T05:46:38;17.60;1.00
1536;DHT22;761;50.074;8.228;2022-09-03T05:49:06;17.80;1.00
1536;DHT22;761;50.074;8.228;2022-09-03T05:51:36;17.70;1.00
1536;DHT22;761;50.074;8.228;2022-09-03T05:54:05;17.70;1.00
1536;DHT22;761;50.074;8.228;2022-09-03T05:56:37;17.70;1.00
1536;DHT22;761;50.074;8.228;2022-09-03T05:59:08;17.70;1.00
1536;DHT22;761;50.074;8.228;2022-09-03T06:01:40;17.70;1.00
1536;DHT22;761;50.074;8.228;2022-09-03T06:04:18;17.70;1.00
1536;DHT22;761;50.074;8.228;2022-09-03T06:06:47;17.70;1.00
1536;DHT22;761;50.074;8.228;2022-09-03T06:09:17;17.60;1.00
1536;DHT22;761;50.074;8.228;2022-09-03T06:14:20;17.20;1.00
1536;DHT22;761;50.074;8.228;2022-09-03T06:16:49;17.10;1.00
1536;DHT22;761;50.074;8.228;2022-09-03T06:19:19;17.10;1.00
1536;DHT22;761;50.074;8.228;2022-09-03T06:21:48;17.00;1.00
1536;DHT22;761;50.074;8.228;2022-09-03T06:24:18;17.00;1.00
1536;DHT22;761;50.074;8.228;2022-09-03T06:26:56;16.80;1.00
1536;DHT22;761;50.074;8.228;2022-09-03T06:29:30;16.70;1.00
1536;DHT22;761;50.074;8.228;2022-09-03T06:31:59;16.50;1.00
1536;DHT22;761;50.074;8.228;2022-09-03T06:34:30;16.50;1.00
1536;DHT22;761;50.074;8.228;2022-09-03T06:36:59;16.50;1.00
1536;DHT22;761;50.074;8.228;2022-09-03T06:39:27;16.40;1.00
1536;DHT22;761;50.074;8.228;2022-09-03T06:41:58;16.20;1.00
1536;DHT22;761;50.074;8.228;2022-09-03T06:44:34;16.00;1.00
1536;DHT22;761;50.074;8.228;2022-09-03T06:47:02;15.60;1.00
1536;DHT22;761;50.074;8.228;2022-09-03T06:49:30;15.50;1.00
1536;DHT22;761;50.074;8.228;2022-09-03T06:51:58;15.60;1.00
1536;DHT22;761;50.074;8.228;2022-09-03T06:54:27;15.80;1.00
1536;DHT22;761;50.074;8.228;2022-09-03T06:56:55;16.00;1.00
1536;DHT22;761;50.074;8.228;2022-09-03T06:59:26;16.10;1.00
1536;DHT22;761;50.074;8.228;2022-09-03T07:01:55;16.10;1.00
1536;DHT22;761;50.074;8.228;2022-09-03T07:04:24;15.80;1.00
1536;DHT22;761;50.074;8.228;2022-09-03T07:06:54;15.90;1.00
1536;DHT22;761;50.074;8.228;2022-09-03T07:09:23;15.70;1.00
1536;DHT22;761;50.074;8.228;2022-09-03T07:11:51;15.70;1.00
1536;DHT22;761;50.074;8.228;2022-09-03T07:14:20;15.70;1.00
1536;DHT22;761;50.074;8.228;2022-09-03T07:16:50;15.80;1.00
1536;DHT22;761;50.074;8.228;2022-09-03T07:19:19;15.90;1.00
1536;DHT22;761;50.074;8.228;2022-09-03T07:21:47;16.00;1.00
1536;DHT22;761;50.074;8.228;2022-09-03T07:24:17;16.10;1.00
1536;DHT22;761;50.074;8.228;2022-09-03T07:26:47;16.10;1.00
1536;DHT22;761;50.074;8.228;2022-09-03T07:29:16;16.10;1.00
1536;DHT22;761;50.074;8.228;2022-09-03T07:31:48;15.80;1.00
1536;DHT22;761;50.074;8.228;2022-09-03T07:34:21;15.70;1.00
1536;DHT22;761;50.074;8.228;2022-09-03T07:36:52;15.60;1.00
1536;DHT22;761;50.074;8.228;2022-09-03T07:39:21;15.50;1.00
1536;DHT22;761;50.074;8.228;2022-09-03T07:41:49;15.20;1.00
1536;DHT22;761;50.074;8.228;2022-09-03T07:44:18;15.30;1.00
1536;DHT22;761;50.074;8.228;2022-09-03T07:46:46;15.30;1.00
1536;DHT22;761;50.074;8.228;2022-09-03T07:49:18;15.30;1.00
1536;DHT22;761;50.074;8.228;2022-09-03T07:51:50;15.30;1.00
1536;DHT22;761;50.074;8.228;2022-09-03T07:54:20;15.40;1.00
1536;DHT22;761;50.074;8.228;2022-09-03T07:56:50;15.50;1.00
1536;DHT22;761;50.074;8.228;2022-09-03T07:59:19;15.60;1.00
1536;DHT22;761;50.074;8.228;2022-09-03T08:01:49;15.70;1.00
1536;DHT22;761;50.074;8.228;2022-09-03T08:04:18;15.70;1.00
1536;DHT22;761;50.074;8.228;2022-09-03T08:06:49;15.70;1.00
1536;DHT22;761;50.074;8.228;2022-09-03T08:09:21;15.60;1.00
1536;DHT22;761;50.074;8.228;2022-09-03T08:11:49;15.60;1.00
1536;DHT22;761;50.074;8.228;2022-09-03T08:14:18;15.90;1.00
1536;DHT22;761;50.074;8.228;2022-09-03T08:16:46;16.00;1.00
1536;DHT22;761;50.074;8.228;2022-09-03T08:19:15;15.90;1.00
1536;DHT22;761;50.074;8.228;2022-09-03T08:21:44;16.10;1.00
1536;DHT22;761;50.074;8.228;2022-09-03T08:24:16;16.50;1.00
1536;DHT22;761;50.074;8.228;2022-09-03T08:26:46;17.00;1.00
1536;DHT22;761;50.074;8.228;2022-09-03T08:29:18;17.00;1.00
1536;DHT22;761;50.074;8.228;2022-09-03T08:31:47;17.30;1.00
1536;DHT22;761;50.074;8.228;2022-09-03T08:34:15;17.50;1.00
1536;DHT22;761;50.074;8.228;2022-09-03T08:36:44;17.40;1.00
1536;DHT22;761;50.074;8.228;2022-09-03T08:39:15;17.50;1.00
1536;DHT22;761;50.074;8.228;2022-09-03T08:42:14;17.70;1.00
1536;DHT22;761;50.074;8.228;2022-09-03T08:44:49;17.50;1.00
1536;DHT22;761;50.074;8.228;2022-09-03T08:47:22;17.20;1.00
1536;DHT22;761;50.074;8.228;2022-09-03T08:49:56;17.20;1.00
1536;DHT22;761;50.074;8.228;2022-09-03T08:52:29;17.40;1.00
1536;DHT22;761;50.074;8.228;2022-09-03T08:55:10;17.50;1.00
1536;DHT22;761;50.074;8.228;2022-09-03T08:57:44;17.50;1.00
1536;DHT22;761;50.074;8.228;2022-09-03T09:00:14;17.60;1.00
1536;DHT22;761;50.074;8.228;2022-09-03T09:02:56;17.50;1.00
1536;DHT22;761;50.074;8.228;2022-09-03T09:05:37;17.40;1.00
1536;DHT22;761;50.074;8.228;2022-09-03T09:08:17;17.50;1.00
1536;DHT22;761;50.074;8.228;2022-09-03T09:10:56;17.50;1.00
1536;DHT22;761;50.074;8.228;2022-09-03T09:13:33;17.40;1.00
1536;DHT22;761;50.074;8.228;2022-09-03T09:16:24;17.40;1.00
1536;DHT22;761;50.074;8.228;2022-09-03T09:19:34;17.40;1.00
1536;DHT22;761;50.074;8.228;2022-09-03T09:22:12;17.40;1.00
1536;DHT22;761;50.074;8.228;2022-09-03T09:24:44;17.40;1.00
1536;DHT22;761;50.074;8.228;2022-09-03T09:27:26;17.40;1.00
1536;DHT22;761;50.074;8.228;2022-09-03T09:30:03;17.50;1.00
1536;DHT22;761;50.074;8.228;2022-09-03T09:32:32;17.60;1.00
1536;DHT22;761;50.074;8.228;2022-09-03T09:35:00;17.70;1.00
1536;DHT22;761;50.074;8.228;2022-09-03T09:37:29;17.60;1.00
1536;DHT22;761;50.074;8.228;2022-09-03T09:39:59;17.60;1.00
1536;DHT22;761;50.074;8.228;2022-09-03T09:42:30;17.50;1.00
1536;DHT22;761;50.074;8.228;2022-09-03T09:45:08;17.70;1.00
1536;DHT22;761;50.074;8.228;2022-09-03T09:47:46;18.30;1.00
1536;DHT22;761;50.074;8.228;2022-09-03T09:50:19;18.30;1.00
1536;DHT22;761;50.074;8.228;2022-09-03T09:55:30;18.70;1.00
1536;DHT22;761;50.074;8.228;2022-09-03T09:58:07;18.60;1.00
1536;DHT22;761;50.074;8.228;2022-09-03T10:01:00;18.50;1.00
1536;DHT22;761;50.074;8.228;2022-09-03T10:03:34;18.50;1.00
1536;DHT22;761;50.074;8.228;2022-09-03T10:06:07;18.60;1.00
1536;DHT22;761;50.074;8.228;2022-09-03T10:09:04;18.80;1.00
1536;DHT22;761;50.074;8.228;2022-09-03T10:11:36;19.00;1.00
1536;DHT22;761;50.074;8.228;2022-09-03T10:14:16;19.10;1.00
1536;DHT22;761;50.074;8.228;2022-09-03T10:16:52;18.80;1.00
1536;DHT22;761;50.074;8.228;2022-09-03T10:19:30;18.60;1.00
1536;DHT22;761;50.074;8.228;2022-09-03T10:22:08;19.10;1.00
1536;DHT22;761;50.074;8.228;2022-09-03T10:24:47;19.10;1.00
1536;DHT22;761;50.074;8.228;2022-09-03T10:27:19;18.90;1.00
1536;DHT22;761;50.074;8.228;2022-09-03T10:29:49;19.10;1.00
1536;DHT22;761;50.074;8.228;2022-09-03T10:32:28;19.40;1.00
1536;DHT22;761;50.074;8.228;2022-09-03T10:35:12;19.50;1.00
1536;DHT22;761;50.074;8.228;2022-09-03T10:37:52;19.70;1.00
1536;DHT22;761;50.074;8.228;2022-09-03T10:40:28;19.70;1.00
1536;DHT22;761;50.074;8.228;2022-09-03T10:43:16;19.70;1.00
1536;DHT22;761;50.074;8.228;2022-09-03T10:45:57;19.20;1.00
1536;DHT22;761;50.074;8.228;2022-09-03T10:48:41;19.50;1.00
1536;DHT22;761;50.074;8.228;2022-09-03T10:51:15;19.60;1.00
1536;DHT22;761;50.074;8.228;2022-09-03T10:56:56;20.00;1.00
1536;DHT22;761;50.074;8.228;2022-09-03T10:59:38;19.90;1.00
1536;DHT22;761;50.074;8.228;2022-09-03T11:02:32;20.10;1.00
1536;DHT22;761;50.074;8.228;2022-09-03T11:05:09;20.40;1.00
1536;DHT22;761;50.074;8.228;2022-09-03T11:07:45;20.40;1.00
1536;DHT22;761;50.074;8.228;2022-09-03T11:10:18;20.30;1.00
1536;DHT22;761;50.074;8.228;2022-09-03T11:13:02;20.10;1.00
1536;DHT22;761;50.074;8.228;2022-09-03T11:15:36;19.80;1.00
1536;DHT22;761;50.074;8.228;2022-09-03T11:18:15;19.80;1.00
1536;DHT22;761;50.074;8.228;2022-09-03T11:20:47;19.70;1.00
1536;DHT22;761;50.074;8.228;2022-09-03T11:23:17;20.10;1.00
1536;DHT22;761;50.074;8.228;2022-09-03T11:25:49;20.10;1.00
1536;DHT22;761;50.074;8.228;2022-09-03T11:28:27;20.30;1.00
1536;DHT22;761;50.074;8.228;2022-09-03T11:31:19;20.50;1.00
1536;DHT22;761;50.074;8.228;2022-09-03T11:33:55;20.50;1.00
1536;DHT22;761;50.074;8.228;2022-09-03T11:36:30;20.60;1.00
1536;DHT22;761;50.074;8.228;2022-09-03T11:38:59;20.60;1.00
1536;DHT22;761;50.074;8.228;2022-09-03T11:41:33;20.30;1.00
1536;DHT22;761;50.074;8.228;2022-09-03T11:44:16;20.40;1.00
1536;DHT22;761;50.074;8.228;2022-09-03T11:46:54;20.50;1.00
1536;DHT22;761;50.074;8.228;2022-09-03T11:49:29;20.80;1.00
1536;DHT22;761;50.074;8.228;2022-09-03T11:51:59;21.20;1.00
1536;DHT22;761;50.074;8.228;2022-09-03T11:54:31;21.30;1.00
1536;DHT22;761;50.074;8.228;2022-09-03T11:57:10;21.60;1.00
1536;DHT22;761;50.074;8.228;2022-09-03T11:59:39;22.10;1.00
1536;DHT22;761;50.074;8.228;2022-09-03T12:02:20;22.30;1.00
1536;DHT22;761;50.074;8.228;2022-09-03T12:05:08;22.10;1.00
1536;DHT22;761;50.074;8.228;2022-09-03T12:07:55;21.30;1.00
1536;DHT22;761;50.074;8.228;2022-09-03T12:10:45;20.80;1.00
1536;DHT22;761;50.074;8.228;2022-09-03T12:13:34;21.30;1.00
1536;DHT22;761;50.074;8.228;2022-09-03T12:16:29;21.30;1.00
1536;DHT22;761;50.074;8.228;2022-09-03T12:19:05;21.20;1.00
1536;DHT22;761;50.074;8.228;2022-09-03T12:21:40;21.50;1.00
1536;DHT22;761;50.074;8.228;2022-09-03T12:24:10;21.60;1.00
1536;DHT22;761;50.074;8.228;2022-09-03T12:26:41;21.90;1.00
1536;DHT22;761;50.074;8.228;2022-09-03T12:29:22;22.20;1.00
1536;DHT22;761;50.074;8.228;2022-09-03T12:31:55;22.00;1.00
1536;DHT22;761;50.074;8.228;2022-09-03T12:34:24;22.10;1.00
1536;DHT22;761;50.074;8.228;2022-09-03T12:36:54;22.30;1.00
1536;DHT22;761;50.074;8.228;2022-09-03T12:39:24;22.40;1.00
1536;DHT22;761;50.074;8.228;2022-09-03T12:42:19;22.60;1.00
1536;DHT22;761;50.074;8.228;2022-09-03T12:44:48;22.60;1.00
1536;DHT22;761;50.074;8.228;2022-09-03T12:47:17;22.70;1.00
1536;DHT22;761;50.074;8.228;2022-09-03T12:50:07;22.80;1.00
1536;DHT22;761;50.074;8.228;2022-09-03T12:52:40;23.00;1.00
1536;DHT22;761;50.074;8.228;2022-09-03T12:55:23;22.90;1.00
1536;DHT22;761;50.074;8.228;2022-09-03T12:57:59;23.00;1.00
1536;DHT22;761;50.074;8.228;2022-09-03T13:00:31;22.90;1.00
1536;DHT22;761;50.074;8.228;2022-09-03T13:03:09;23.20;1.00
1536;DHT22;761;50.074;8.228;2022-09-03T13:05:42;23.20;1.00
1536;DHT22;761;50.074;8.228;2022-09-03T13:08:20;23.10;1.00
1536;DHT22;761;50.074;8.228;2022-09-03T13:10:52;23.20;1.00
1536;DHT22;761;50.074;8.228;2022-09-03T13:13:26;23.60;1.00
1536;DHT22;761;50.074;8.228;2022-09-03T13:16:16;23.60;1.00
1536;DHT22;761;50.074;8.228;2022-09-03T13:18:55;23.30;1.00
1536;DHT22;761;50.074;8.228;2022-09-03T13:21:38;23.20;1.00
1536;DHT22;761;50.074;8.228;2022-09-03T13:24:35;23.20;1.00
1536;DHT22;761;50.074;8.228;2022-09-03T13:27:17;22.90;1.00
1536;DHT22;761;50.074;8.228;2022-09-03T13:29:59;22.80;1.00
1536;DHT22;761;50.074;8.228;2022-09-03T13:32:46;22.90;1.00
1536;DHT22;761;50.074;8.228;2022-09-03T13:35:26;22.90;1.00
1536;DHT22;761;50.074;8.228;2022-09-03T13:37:57;23.10;1.00
1536;DHT22;761;50.074;8.228;2022-09-03T13:40:35;23.00;1.00
1536;DHT22;761;50.074;8.228;2022-09-03T13:43:19;22.90;1.00
1536;DHT22;761;50.074;8.228;2022-09-03T13:45:53;22.70;1.00
1536;DHT22;761;50.074;8.228;2022-09-03T13:48:29;22.70;1.00
1536;DHT22;761;50.074;8.228;2022-09-03T13:51:22;22.50;1.00
1536;DHT22;761;50.074;8.228;2022-09-03T13:54:02;22.40;1.00
1536;DHT22;761;50.074;8.228;2022-09-03T13:56:46;22.40;1.00
1536;DHT22;761;50.074;8.228;2022-09-03T13:59:25;22.50;1.00
1536;DHT22;761;50.074;8.228;2022-09-03T14:02:17;22.40;1.00
1536;DHT22;761;50.074;8.228;2022-09-03T14:05:01;22.60;1.00
1536;DHT22;761;50.074;8.228;2022-09-03T14:07:47;22.60;1.00
1536;DHT22;761;50.074;8.228;2022-09-03T14:10:22;22.40;1.00
1536;DHT22;761;50.074;8.228;2022-09-03T14:13:03;22.60;1.00
1536;DHT22;761;50.074;8.228;2022-09-03T14:15:40;22.70;1.00
1536;DHT22;761;50.074;8.228;2022-09-03T14:18:28;22.70;1.00
1536;DHT22;761;50.074;8.228;2022-09-03T14:21:05;22.80;1.00
1536;DHT22;761;50.074;8.228;2022-09-03T14:23:41;22.90;1.00
1536;DHT22;761;50.074;8.228;2022-09-03T14:26:16;22.90;1.00
1536;DHT22;761;50.074;8.228;2022-09-03T14:29:15;23.20;1.00
1536;DHT22;761;50.074;8.228;2022-09-03T14:34:58;23.10;1.00
1536;DHT22;761;50.074;8.228;2022-09-03T14:37:39;23.10;1.00
1536;DHT22;761;50.074;8.228;2022-09-03T14:40:14;23.30;1.00
1536;DHT22;761;50.074;8.228;2022-09-03T14:43:02;23.30;1.00
1536;DHT22;761;50.074;8.228;2022-09-03T14:45:56;23.30;1.00
1536;DHT22;761;50.074;8.228;2022-09-03T14:48:57;23.20;1.00
1536;DHT22;761;50.074;8.228;2022-09-03T14:51:38;23.10;1.00
1536;DHT22;761;50.074;8.228;2022-09-03T14:54:33;22.80;1.00
1536;DHT22;761;50.074;8.228;2022-09-03T14:57:15;22.70;1.00
1536;DHT22;761;50.074;8.228;2022-09-03T15:00:03;22.70;1.00
1536;DHT22;761;50.074;8.228;2022-09-03T15:05:46;22.80;1.00
1536;DHT22;761;50.074;8.228;2022-09-03T15:08:38;22.90;1.00
1536;DHT22;761;50.074;8.228;2022-09-03T15:11:15;22.90;1.00
1536;DHT22;761;50.074;8.228;2022-09-03T15:13:48;23.00;1.00
1536;DHT22;761;50.074;8.228;2022-09-03T15:16:30;23.10;1.00
1536;DHT22;761;50.074;8.228;2022-09-03T15:19:15;23.10;1.00
1536;DHT22;761;50.074;8.228;2022-09-03T15:21:57;23.10;1.00
1536;DHT22;761;50.074;8.228;2022-09-03T15:24:39;23.00;1.00
1536;DHT22;761;50.074;8.228;2022-09-03T15:27:30;23.30;1.00
1536;DHT22;761;50.074;8.228;2022-09-03T15:30:05;23.20;1.00
1536;DHT22;761;50.074;8.228;2022-09-03T15:32:48;23.10;1.00
1536;DHT22;761;50.074;8.228;2022-09-03T15:35:33;22.90;1.00
1536;DHT22;761;50.074;8.228;2022-09-03T15:38:07;22.90;1.00
1536;DHT22;761;50.074;8.228;2022-09-03T15:40:41;22.80;1.00
1536;DHT22;761;50.074;8.228;2022-09-03T15:43:18;22.80;1.00
1536;DHT22;761;50.074;8.228;2022-09-03T15:45:53;22.80;1.00
1536;DHT22;761;50.074;8.228;2022-09-03T15:48:33;22.60;1.00
1536;DHT22;761;50.074;8.228;2022-09-03T15:51:10;22.40;1.00
1536;DHT22;761;50.074;8.228;2022-09-03T15:53:49;22.30;1.00
1536;DHT22;761;50.074;8.228;2022-09-03T15:56:24;22.40;1.00
1536;DHT22;761;50.074;8.228;2022-09-03T15:59:00;22.40;1.00
1536;DHT22;761;50.074;8.228;2022-09-03T16:01:35;22.40;1.00
1536;DHT22;761;50.074;8.228;2022-09-03T16:04:17;22.40;1.00
1536;DHT22;761;50.074;8.228;2022-09-03T16:06:57;22.40;1.00
1536;DHT22;761;50.074;8.228;2022-09-03T16:09:37;22.40;1.00
1536;DHT22;761;50.074;8.228;2022-09-03T16:12:19;22.40;1.00
1536;DHT22;761;50.074;8.228;2022-09-03T16:14:56;22.40;1.00
1536;DHT22;761;50.074;8.228;2022-09-03T16:17:30;22.30;1.00
1536;DHT22;761;50.074;8.228;2022-09-03T16:20:03;22.30;1.00
1536;DHT22;761;50.074;8.228;2022-09-03T16:22:41;22.30;1.00
1536;DHT22;761;50.074;8.228;2022-09-03T16:25:14;22.40;1.00
1536;DHT22;761;50.074;8.228;2022-09-03T16:27:59;22.30;1.00
1536;DHT22;761;50.074;8.228;2022-09-03T16:30:50;22.20;1.00
1536;DHT22;761;50.074;8.228;2022-09-03T16:33:26;21.80;1.00
1536;DHT22;761;50.074;8.228;2022-09-03T16:36:00;21.50;1.00
1536;DHT22;761;50.074;8.228;2022-09-03T16:38:41;21.10;1.00
1536;DHT22;761;50.074;8.228;2022-09-03T16:41:18;21.10;1.00
1536;DHT22;761;50.074;8.228;2022-09-03T16:43:57;20.80;1.00
1536;DHT22;761;50.074;8.228;2022-09-03T16:46:34;20.50;1.00
1536;DHT22;761;50.074;8.228;2022-09-03T16:49:14;20.40;1.00
1536;DHT22;761;50.074;8.228;2022-09-03T16:51:53;20.20;1.00
1536;DHT22;761;50.074;8.228;2022-09-03T16:54:47;20.30;1.00
1536;DHT22;761;50.074;8.228;2022-09-03T16:57:34;20.30;1.00
1536;DHT22;761;50.074;8.228;2022-09-03T17:00:12;20.10;1.00
1536;DHT22;761;50.074;8.228;2022-09-03T17:03:08;20.00;1.00
1536;DHT22;761;50.074;8.228;2022-09-03T17:08:59;19.90;1.00
1536;DHT22;761;50.074;8.228;2022-09-03T17:11:52;20.00;1.00
1536;DHT22;761;50.074;8.228;2022-09-03T17:17:32;20.10;1.00
1536;DHT22;761;50.074;8.228;2022-09-03T17:20:09;20.30;1.00
1536;DHT22;761;50.074;8.228;2022-09-03T17:22:48;20.30;1.00
1536;DHT22;761;50.074;8.228;2022-09-03T17:25:26;20.30;1.00
1536;DHT22;761;50.074;8.228;2022-09-03T17:28:17;20.20;1.00
1536;DHT22;761;50.074;8.228;2022-09-03T17:30:55;20.10;1.00
1536;DHT22;761;50.074;8.228;2022-09-03T17:33:52;20.20;1.00
1536;DHT22;761;50.074;8.228;2022-09-03T17:36:25;20.30;1.00
1536;DHT22;761;50.074;8.228;2022-09-03T17:42:03;20.20;1.00
1536;DHT22;761;50.074;8.228;2022-09-03T17:44:42;20.10;1.00
1536;DHT22;761;50.074;8.228;2022-09-03T17:47:33;20.00;1.00
1536;DHT22;761;50.074;8.228;2022-09-03T17:50:11;20.00;1.00
1536;DHT22;761;50.074;8.228;2022-09-03T17:52:44;20.00;1.00
1536;DHT22;761;50.074;8.228;2022-09-03T17:55:25;20.20;1.00
1536;DHT22;761;50.074;8.228;2022-09-03T17:58:11;20.20;1.00